KLGF

Laguna AAF (Yuma Proving Ground) Airport

Yuma Proving Ground(Yuma), Arizona, USA
METAR KLGF 170658Z AUTO 09007KT 10SM CLR 11/M01 A3014 RMK AO2 SLPNO T01141010 402060069 PNO $
Observed Flight Rules
Dec-17 @ 06:58 UTC (55 minutes ago) Visual Flight Rules
Wind Visibility Clouds
90° at 7 knots 10 miles
  • Clear skies
Temperatures Readings
Current 11°C / 52°F
Dewpoint -1°C / 30°F
Humidity 44%
Altimeter 30.14" Hg
Pressure 1021 hPa
Elevation 132
METAR KLGF 170658Z AUTO 09007KT 10SM CLR 11/M01 A3014 RMK AO2 SLPNO T01141010 402060069 PNO $
Observed Flight Rules
Dec-17 @ 06:58 UTC
(55 minutes ago)
VFR
Wind Visibility
90° at 7 knots 10 miles
Clouds
  • Clear skies
Temperature Dewpoint
11°C / 52°F -1°C / 30°F
Humidity Altimeter Pressure
44% 30.14" Hg 1021 hPa